createdAt,value
2023-01-29T00:02:09.581Z,99.90
2023-01-29T00:04:36.447Z,99.90
2023-01-29T00:07:03.266Z,99.90
2023-01-29T00:09:31.450Z,99.90
2023-01-29T00:11:58.387Z,99.90
2023-01-29T00:14:27.301Z,99.90
2023-01-29T00:16:54.183Z,99.90
2023-01-29T00:19:21.181Z,99.90
2023-01-29T00:21:47.975Z,99.90
2023-01-29T00:24:14.895Z,99.90
2023-01-29T00:26:43.636Z,99.90
2023-01-29T00:29:10.592Z,99.90
2023-01-29T00:31:37.482Z,99.90
2023-01-29T00:34:04.351Z,99.90
2023-01-29T00:36:31.202Z,99.90
2023-01-29T00:38:59.605Z,99.90
2023-01-29T00:41:49.622Z,1.00
2023-01-29T00:44:35.141Z,99.90
2023-01-29T00:47:02.862Z,99.90
2023-01-29T00:49:30.520Z,1.00
2023-01-29T00:52:16.037Z,1.00
2023-01-29T00:54:42.817Z,1.00
2023-01-29T00:57:09.703Z,1.00
2023-01-29T00:59:36.447Z,1.00
2023-01-29T01:02:21.961Z,1.00
2023-01-29T01:04:48.797Z,1.00
2023-01-29T01:07:15.590Z,1.00
2023-01-29T01:10:05.483Z,1.00
2023-01-29T01:12:32.510Z,1.00
2023-01-29T01:14:59.383Z,1.00
2023-01-29T01:17:26.330Z,1.00
2023-01-29T01:19:53.135Z,4.80
2023-01-29T01:22:20.192Z,99.90
2023-01-29T01:24:47.013Z,99.90
2023-01-29T01:27:14.192Z,99.90
2023-01-29T01:29:41.072Z,99.90
2023-01-29T01:32:07.862Z,99.90
2023-01-29T01:34:34.802Z,99.90
2023-01-29T01:37:01.613Z,99.90
2023-01-29T01:39:28.397Z,99.90
2023-01-29T01:41:55.575Z,99.90
2023-01-29T01:45:15.348Z,99.90
2023-01-29T01:47:46.446Z,99.90
2023-01-29T01:50:17.149Z,99.90
2023-01-29T01:52:48.196Z,99.90
2023-01-29T01:55:18.077Z,99.90
2023-01-29T01:57:48.222Z,99.90
2023-01-29T02:00:17.763Z,99.90
2023-01-29T02:03:04.671Z,99.90
2023-01-29T02:05:52.217Z,99.90
2023-01-29T02:08:59.906Z,99.90
2023-01-29T02:11:26.820Z,99.90
2023-01-29T02:13:54.052Z,99.90
2023-01-29T02:16:22.003Z,99.90
2023-01-29T02:18:49.625Z,99.90
2023-01-29T02:21:31.699Z,99.90
2023-01-29T02:24:06.428Z,99.90
2023-01-29T02:26:47.663Z,99.90
2023-01-29T02:29:30.540Z,99.90
2023-01-29T02:32:14.399Z,99.90
2023-01-29T02:35:05.380Z,99.90
2023-01-29T02:37:38.473Z,99.90
2023-01-29T02:40:12.927Z,1.00
2023-01-29T02:42:47.563Z,1.00
2023-01-29T02:45:19.495Z,1.00
2023-01-29T02:47:58.803Z,99.90
2023-01-29T02:50:38.006Z,99.90
2023-01-29T02:53:25.026Z,99.90
2023-01-29T02:56:14.703Z,1.00
2023-01-29T02:58:44.235Z,1.00
2023-01-29T03:01:25.789Z,1.00
2023-01-29T03:03:56.653Z,1.00
2023-01-29T03:06:28.353Z,1.00
2023-01-29T03:09:30.108Z,1.00
2023-01-29T03:12:19.839Z,1.00
2023-01-29T03:15:11.184Z,1.00
2023-01-29T03:17:52.469Z,1.00
2023-01-29T03:20:25.421Z,1.00
2023-01-29T03:22:58.235Z,1.00
2023-01-29T03:25:45.627Z,1.00
2023-01-29T03:28:34.575Z,1.00
2023-01-29T03:31:23.618Z,1.00
2023-01-29T03:34:24.269Z,1.00
2023-01-29T03:36:55.784Z,1.00
2023-01-29T03:39:25.153Z,1.00
2023-01-29T03:42:05.104Z,1.00
2023-01-29T03:45:02.473Z,1.00
2023-01-29T03:47:50.609Z,1.00
2023-01-29T03:50:32.980Z,1.00
2023-01-29T03:53:15.391Z,1.00
2023-01-29T03:55:49.557Z,1.00
2023-01-29T03:58:35.599Z,1.00
2023-01-29T04:01:12.829Z,1.00
2023-01-29T04:04:26.277Z,1.00
2023-01-29T04:06:56.795Z,1.00
2023-01-29T04:09:29.555Z,1.00
2023-01-29T04:12:09.151Z,1.00
2023-01-29T04:14:37.128Z,1.00
2023-01-29T04:17:16.542Z,1.00
2023-01-29T04:19:44.155Z,1.00
2023-01-29T04:22:15.961Z,1.00
2023-01-29T04:24:42.953Z,1.00
2023-01-29T04:27:20.896Z,1.00
2023-01-29T04:30:06.593Z,1.00
2023-01-29T04:32:40.638Z,1.00
2023-01-29T04:35:19.596Z,1.00
2023-01-29T04:37:58.719Z,1.00
2023-01-29T04:40:39.549Z,1.00
2023-01-29T04:43:17.402Z,1.00
2023-01-29T04:45:50.368Z,1.00
2023-01-29T04:48:20.002Z,1.00
2023-01-29T04:50:48.606Z,1.00
2023-01-29T04:53:36.262Z,1.00
2023-01-29T04:56:17.681Z,1.00
2023-01-29T04:58:56.275Z,61.40
2023-01-29T05:01:25.822Z,99.90
2023-01-29T05:03:54.921Z,1.00
2023-01-29T05:06:23.024Z,99.90
2023-01-29T05:08:50.641Z,99.90
2023-01-29T05:11:18.583Z,99.90
2023-01-29T05:13:45.737Z,41.60
2023-01-29T05:16:52.038Z,99.90
2023-01-29T05:19:18.901Z,99.90
2023-01-29T05:21:48.170Z,1.00
2023-01-29T05:24:18.036Z,99.90
2023-01-29T05:27:06.673Z,99.90
2023-01-29T05:29:33.527Z,99.90
2023-01-29T05:32:00.534Z,37.90
2023-01-29T05:34:27.576Z,19.60
2023-01-29T05:36:54.404Z,1.00
2023-01-29T05:39:21.455Z,1.00
2023-01-29T05:41:48.288Z,27.10
2023-01-29T05:44:15.070Z,1.00
2023-01-29T05:46:41.917Z,1.00
2023-01-29T05:49:08.690Z,1.00
2023-01-29T05:51:35.573Z,1.00
2023-01-29T05:54:02.362Z,1.00
2023-01-29T05:56:29.174Z,16.50
2023-01-29T05:58:56.698Z,1.00
2023-01-29T06:01:25.182Z,1.00
2023-01-29T06:03:52.123Z,1.00
2023-01-29T06:06:18.908Z,1.00
2023-01-29T06:08:45.877Z,1.00
2023-01-29T06:11:13.890Z,1.00
2023-01-29T06:13:40.877Z,1.00
2023-01-29T06:16:09.270Z,99.90
2023-01-29T06:18:36.796Z,99.90
2023-01-29T06:21:04.637Z,99.90
2023-01-29T06:23:32.248Z,71.60
2023-01-29T06:26:00.993Z,39.50
2023-01-29T06:28:28.014Z,62.20
2023-01-29T06:31:03.085Z,99.90
2023-01-29T06:33:32.317Z,99.90
2023-01-29T06:36:00.564Z,99.90
2023-01-29T06:38:28.087Z,99.90
2023-01-29T06:40:55.631Z,99.90
2023-01-29T06:43:23.454Z,99.90
2023-01-29T06:45:52.352Z,99.90
2023-01-29T06:48:19.427Z,99.90
2023-01-29T06:50:46.569Z,99.90
2023-01-29T06:53:13.582Z,99.90
2023-01-29T06:55:40.489Z,99.90
2023-01-29T06:58:08.862Z,11.00
2023-01-29T07:00:36.327Z,30.20
2023-01-29T07:03:04.190Z,68.40
2023-01-29T07:05:31.783Z,28.20
2023-01-29T07:07:58.701Z,65.10
2023-01-29T07:10:25.615Z,37.10
2023-01-29T07:12:52.430Z,90.30
2023-01-29T07:15:21.299Z,1.30
2023-01-29T07:18:02.267Z,53.70
2023-01-29T07:20:30.163Z,70.00
2023-01-29T07:22:57.984Z,3.20
2023-01-29T07:25:25.767Z,17.10
2023-01-29T07:27:52.587Z,1.90
2023-01-29T07:30:19.587Z,10.10
2023-01-29T07:32:46.459Z,67.80
2023-01-29T07:35:13.441Z,62.70
2023-01-29T07:37:40.313Z,18.70
2023-01-29T07:40:10.475Z,10.80
2023-01-29T07:42:42.284Z,21.00
2023-01-29T07:45:09.524Z,46.40
2023-01-29T07:47:36.807Z,3.10
2023-01-29T07:50:04.577Z,1.00
2023-01-29T07:52:32.633Z,1.00
2023-01-29T07:54:59.723Z,1.00
2023-01-29T07:57:26.549Z,1.00
2023-01-29T07:59:53.399Z,17.60
2023-01-29T08:02:20.279Z,57.50
2023-01-29T08:04:47.078Z,99.90
2023-01-29T08:07:13.978Z,46.40
2023-01-29T08:09:40.743Z,1.20
2023-01-29T08:12:07.591Z,1.00
2023-01-29T08:14:34.394Z,3.90
2023-01-29T08:17:01.194Z,1.00
2023-01-29T08:19:28.313Z,6.00
2023-01-29T08:21:55.145Z,9.00
2023-01-29T08:24:22.007Z,1.00
2023-01-29T08:26:48.866Z,1.00
2023-01-29T08:29:15.667Z,1.00
2023-01-29T08:31:45.674Z,1.00
2023-01-29T08:34:12.513Z,1.00
2023-01-29T08:36:39.373Z,11.70
2023-01-29T08:39:06.334Z,44.10
2023-01-29T08:41:33.208Z,23.30
2023-01-29T08:44:02.325Z,22.10
2023-01-29T08:46:29.200Z,21.00
2023-01-29T08:48:55.972Z,50.40
2023-01-29T08:51:25.419Z,35.40
2023-01-29T08:53:52.511Z,26.70
2023-01-29T08:56:19.355Z,1.00
2023-01-29T08:58:46.221Z,9.90
2023-01-29T09:01:14.213Z,3.50
2023-01-29T09:03:43.745Z,18.90
2023-01-29T09:06:12.334Z,1.00
2023-01-29T09:08:39.568Z,1.00
2023-01-29T09:11:07.068Z,1.00
2023-01-29T09:13:34.294Z,1.00
2023-01-29T09:16:02.212Z,1.00
2023-01-29T09:18:30.225Z,1.00
2023-01-29T09:20:57.918Z,1.00
2023-01-29T09:23:24.676Z,1.00
2023-01-29T09:25:51.472Z,1.00
2023-01-29T09:28:18.453Z,1.00
2023-01-29T09:30:45.862Z,1.00
2023-01-29T09:33:12.929Z,1.00
2023-01-29T09:35:43.650Z,1.00
2023-01-29T09:38:10.775Z,1.00
2023-01-29T09:40:57.449Z,1.00
2023-01-29T09:43:43.985Z,1.00
2023-01-29T09:46:23.861Z,1.00
2023-01-29T09:49:00.257Z,1.00
2023-01-29T09:51:37.993Z,1.00
2023-01-29T09:54:14.766Z,1.00
2023-01-29T09:56:42.641Z,1.00
2023-01-29T09:59:11.941Z,1.00
2023-01-29T10:01:45.630Z,1.00
2023-01-29T10:04:43.510Z,1.00
2023-01-29T10:07:13.468Z,1.00
2023-01-29T10:10:11.018Z,1.00
2023-01-29T10:12:37.885Z,1.00
2023-01-29T10:15:26.525Z,1.00
2023-01-29T10:17:59.688Z,1.00
2023-01-29T10:20:50.244Z,1.00
2023-01-29T10:23:29.439Z,1.00
2023-01-29T10:25:56.758Z,1.00
2023-01-29T10:28:35.262Z,1.00
2023-01-29T10:31:16.249Z,1.00
2023-01-29T10:34:00.675Z,1.00
2023-01-29T10:36:49.109Z,1.00
2023-01-29T10:39:20.765Z,1.00
2023-01-29T10:41:49.765Z,1.00
2023-01-29T10:44:41.982Z,1.00
2023-01-29T10:47:46.756Z,1.00
2023-01-29T10:50:40.877Z,1.00
2023-01-29T10:53:16.855Z,1.00
2023-01-29T10:56:28.825Z,1.00
2023-01-29T10:58:57.269Z,1.00
2023-01-29T11:01:24.165Z,1.00
2023-01-29T11:04:00.104Z,1.00
2023-01-29T11:06:31.392Z,1.00
2023-01-29T11:12:13.956Z,1.00
2023-01-29T11:14:55.988Z,99.90
2023-01-29T11:17:24.568Z,99.90
2023-01-29T11:19:55.443Z,99.90
2023-01-29T11:22:27.181Z,99.90
2023-01-29T11:25:18.379Z,28.90
2023-01-29T11:27:50.531Z,60.30
2023-01-29T11:30:24.609Z,65.30
2023-01-29T11:33:00.651Z,99.90
2023-01-29T11:35:30.230Z,99.90
2023-01-29T11:38:15.388Z,46.90
2023-01-29T11:40:43.405Z,1.00
2023-01-29T11:43:20.915Z,29.10
2023-01-29T11:45:52.814Z,37.20
2023-01-29T11:48:26.649Z,1.00
2023-01-29T11:51:00.744Z,1.00
2023-01-29T11:53:43.267Z,1.00
2023-01-29T11:56:23.271Z,1.00
2023-01-29T11:58:51.752Z,99.90
2023-01-29T12:01:28.184Z,99.90
2023-01-29T12:03:55.243Z,99.90
2023-01-29T12:06:24.215Z,99.90
2023-01-29T12:08:57.142Z,99.90
2023-01-29T12:11:27.761Z,99.90
2023-01-29T12:13:56.378Z,99.90
2023-01-29T12:16:44.692Z,99.90
2023-01-29T12:19:17.150Z,99.90
2023-01-29T12:21:55.570Z,99.90
2023-01-29T12:24:46.307Z,99.90
2023-01-29T12:27:18.029Z,74.60
2023-01-29T12:30:28.052Z,29.60
2023-01-29T12:33:10.070Z,99.90
2023-01-29T12:35:42.709Z,99.90
2023-01-29T12:38:22.955Z,29.30
2023-01-29T12:41:11.695Z,25.10
2023-01-29T12:43:58.091Z,32.60
2023-01-29T12:46:35.068Z,5.10
2023-01-29T12:49:03.468Z,1.00
2023-01-29T12:51:36.650Z,1.00
2023-01-29T12:54:10.288Z,1.00
2023-01-29T12:56:42.012Z,1.00
2023-01-29T12:59:28.920Z,1.00
2023-01-29T13:01:59.997Z,1.00
2023-01-29T13:04:43.921Z,1.00
2023-01-29T13:07:13.918Z,1.00
2023-01-29T13:09:43.979Z,1.00
2023-01-29T13:12:14.902Z,1.00
2023-01-29T13:14:52.163Z,1.00
2023-01-29T13:17:31.542Z,1.00
2023-01-29T13:20:02.045Z,1.00
2023-01-29T13:22:34.776Z,1.00
2023-01-29T13:25:05.873Z,1.00
2023-01-29T13:27:34.277Z,1.00
2023-01-29T13:30:01.608Z,1.00
2023-01-29T13:32:30.796Z,1.00
2023-01-29T13:35:05.918Z,1.00
2023-01-29T13:37:39.025Z,1.00
2023-01-29T13:40:07.348Z,1.00
2023-01-29T13:42:44.361Z,1.00
2023-01-29T13:45:21.938Z,1.00
2023-01-29T13:47:49.270Z,1.00
2023-01-29T13:50:39.194Z,1.00
2023-01-29T13:53:08.405Z,1.00
2023-01-29T13:55:37.938Z,1.00
2023-01-29T13:58:06.444Z,1.00
2023-01-29T14:00:33.190Z,1.00
2023-01-29T14:02:59.952Z,1.00
2023-01-29T14:05:29.799Z,1.00
2023-01-29T14:07:59.397Z,1.00
2023-01-29T14:10:31.472Z,1.00
2023-01-29T14:13:04.267Z,1.00
2023-01-29T14:15:35.371Z,1.00
2023-01-29T14:18:08.480Z,1.00
2023-01-29T14:20:45.736Z,1.00
2023-01-29T14:23:28.287Z,1.00
2023-01-29T14:25:55.950Z,1.00
2023-01-29T14:28:25.223Z,1.00
2023-01-29T14:30:52.358Z,1.00
2023-01-29T14:33:33.730Z,1.00
2023-01-29T14:36:05.173Z,1.00
2023-01-29T14:38:35.461Z,1.00
2023-01-29T14:41:08.061Z,1.00
2023-01-29T14:43:34.946Z,1.00
2023-01-29T14:46:35.837Z,1.00
2023-01-29T14:49:03.027Z,1.00
2023-01-29T14:51:34.809Z,1.00
2023-01-29T14:54:05.124Z,1.00
2023-01-29T14:56:45.539Z,1.00
2023-01-29T14:59:37.624Z,1.00
2023-01-29T15:02:14.577Z,1.00
2023-01-29T15:04:46.406Z,1.00
2023-01-29T15:07:13.150Z,1.00
2023-01-29T15:09:40.972Z,1.00
2023-01-29T15:12:14.655Z,1.00
2023-01-29T15:15:19.945Z,1.00
2023-01-29T15:17:56.856Z,1.00
2023-01-29T15:20:28.185Z,1.00
2023-01-29T15:22:54.970Z,1.00
2023-01-29T15:25:21.926Z,1.00
2023-01-29T15:27:52.944Z,1.00
2023-01-29T15:30:26.778Z,1.00
2023-01-29T15:32:53.634Z,1.00
2023-01-29T15:35:29.549Z,1.00
2023-01-29T15:38:13.181Z,1.00
2023-01-29T15:40:40.550Z,1.00
2023-01-29T15:43:22.721Z,1.00
2023-01-29T15:45:50.842Z,1.00
2023-01-29T15:48:21.026Z,1.00
2023-01-29T15:50:55.446Z,17.80
2023-01-29T15:53:30.155Z,1.00
2023-01-29T15:56:00.047Z,1.00
2023-01-29T15:58:31.893Z,35.70
2023-01-29T16:01:00.245Z,48.00
2023-01-29T16:03:28.900Z,76.40
2023-01-29T16:05:55.870Z,99.90
2023-01-29T16:08:24.189Z,95.50
2023-01-29T16:10:55.182Z,99.90
2023-01-29T16:13:29.341Z,99.90
2023-01-29T16:16:16.448Z,99.90
2023-01-29T16:18:58.919Z,99.90
2023-01-29T16:21:33.400Z,99.90
2023-01-29T16:24:05.186Z,99.90
2023-01-29T16:26:34.325Z,99.90
2023-01-29T16:29:10.049Z,99.90
2023-01-29T16:31:37.569Z,99.90
2023-01-29T16:34:17.046Z,99.90
2023-01-29T16:36:48.062Z,99.90
2023-01-29T16:39:36.957Z,1.00
2023-01-29T16:42:10.751Z,1.00
2023-01-29T16:44:41.200Z,1.00
2023-01-29T16:47:13.023Z,1.00
2023-01-29T16:49:39.803Z,1.00
2023-01-29T16:52:24.177Z,1.00
2023-01-29T16:54:51.415Z,1.00
2023-01-29T16:57:22.459Z,1.00
2023-01-29T16:59:49.928Z,1.00
2023-01-29T17:02:27.147Z,1.00
2023-01-29T17:04:57.910Z,1.00
2023-01-29T17:07:25.064Z,1.00
2023-01-29T17:09:54.876Z,1.00
2023-01-29T17:12:24.330Z,99.90
2023-01-29T17:14:57.831Z,1.00
2023-01-29T17:17:32.706Z,1.00
2023-01-29T17:20:11.951Z,1.00
2023-01-29T17:22:38.749Z,1.00
2023-01-29T17:25:06.403Z,1.00
2023-01-29T17:27:33.296Z,1.00
2023-01-29T17:30:00.135Z,1.00
2023-01-29T17:32:42.949Z,1.00
2023-01-29T17:35:14.102Z,1.00
2023-01-29T17:37:41.093Z,1.00
2023-01-29T17:40:32.781Z,1.00
2023-01-29T17:42:59.650Z,1.00
2023-01-29T17:45:26.544Z,1.00
2023-01-29T17:47:53.424Z,1.00
2023-01-29T17:50:26.592Z,1.00
2023-01-29T17:52:53.980Z,1.00
2023-01-29T17:55:21.204Z,1.00
2023-01-29T17:57:48.268Z,1.00
2023-01-29T18:00:20.653Z,1.00
2023-01-29T18:02:47.497Z,1.00
2023-01-29T18:05:15.441Z,3.10
2023-01-29T18:07:44.627Z,29.40
2023-01-29T18:10:17.715Z,99.90
2023-01-29T18:12:44.877Z,99.90
2023-01-29T18:15:12.295Z,99.90
2023-01-29T18:17:40.118Z,99.90
2023-01-29T18:20:20.689Z,99.90
2023-01-29T18:22:47.921Z,99.90
2023-01-29T18:25:15.916Z,99.90
2023-01-29T18:27:43.514Z,99.90
2023-01-29T18:30:15.254Z,1.00
2023-01-29T18:32:42.073Z,1.00
2023-01-29T18:35:09.516Z,1.00
2023-01-29T18:37:40.600Z,1.00
2023-01-29T18:40:08.208Z,1.00
2023-01-29T18:42:36.098Z,1.00
2023-01-29T18:45:03.934Z,1.00
2023-01-29T18:47:30.825Z,1.00
2023-01-29T18:49:57.761Z,1.00
2023-01-29T18:52:24.708Z,1.00
2023-01-29T18:54:51.941Z,1.00
2023-01-29T18:58:24.928Z,1.00
2023-01-29T19:00:06.075Z,1.00
2023-01-29T19:02:32.974Z,54.50
2023-01-29T19:04:59.850Z,99.90
2023-01-29T19:07:26.721Z,99.90
2023-01-29T19:09:53.870Z,99.90
2023-01-29T19:12:21.938Z,99.90
2023-01-29T19:14:48.880Z,99.90
2023-01-29T19:17:15.853Z,99.90
2023-01-29T19:19:42.722Z,99.90
2023-01-29T19:22:09.622Z,99.90
2023-01-29T19:24:39.061Z,1.00
2023-01-29T19:27:06.767Z,1.00
2023-01-29T19:29:34.068Z,1.00
2023-01-29T19:32:01.013Z,1.00
2023-01-29T19:34:28.034Z,1.00
2023-01-29T19:36:54.949Z,1.00
2023-01-29T19:39:21.859Z,8.50
2023-01-29T19:41:48.675Z,13.60
2023-01-29T19:44:15.569Z,46.00
2023-01-29T19:46:42.389Z,99.90
2023-01-29T19:49:10.294Z,99.90
2023-01-29T19:51:37.129Z,99.90
2023-01-29T19:54:04.316Z,99.90
2023-01-29T19:56:31.340Z,99.90
2023-01-29T19:58:58.214Z,99.90
2023-01-29T20:01:25.180Z,99.90
2023-01-29T20:03:52.012Z,99.90
2023-01-29T20:06:22.076Z,99.90
2023-01-29T20:08:49.141Z,99.90
2023-01-29T20:11:17.627Z,99.90
2023-01-29T20:13:46.836Z,99.90
2023-01-29T20:16:13.937Z,99.90
2023-01-29T20:18:40.910Z,99.90
2023-01-29T20:21:09.988Z,99.90
2023-01-29T20:23:38.765Z,99.90
2023-01-29T20:26:11.850Z,99.90
2023-01-29T20:28:38.892Z,99.90
2023-01-29T20:31:06.457Z,99.90
2023-01-29T20:33:34.812Z,99.90
2023-01-29T20:36:04.033Z,99.90
2023-01-29T20:38:31.900Z,1.00
2023-01-29T20:41:05.801Z,1.00
2023-01-29T20:43:33.075Z,1.00
2023-01-29T20:46:00.931Z,1.00
2023-01-29T20:48:27.996Z,1.00
2023-01-29T20:50:54.898Z,1.00
2023-01-29T20:53:21.894Z,1.00
2023-01-29T20:55:49.007Z,1.00
2023-01-29T20:58:16.171Z,1.00
2023-01-29T21:00:44.724Z,1.00
2023-01-29T21:03:11.688Z,1.00
2023-01-29T21:05:38.476Z,1.00
2023-01-29T21:08:05.568Z,1.00
2023-01-29T21:10:32.627Z,1.00
2023-01-29T21:12:59.419Z,1.00
2023-01-29T21:15:27.392Z,1.00
2023-01-29T21:17:54.909Z,1.00
2023-01-29T21:20:21.732Z,1.00
2023-01-29T21:22:49.151Z,1.00
2023-01-29T21:25:16.352Z,1.00
2023-01-29T21:27:43.163Z,1.00
2023-01-29T21:30:10.594Z,1.00
2023-01-29T21:32:37.412Z,38.50
2023-01-29T21:35:04.605Z,99.90
2023-01-29T21:37:33.647Z,99.90
2023-01-29T21:40:00.454Z,99.90
2023-01-29T21:42:45.930Z,99.90
2023-01-29T21:45:12.779Z,99.90
2023-01-29T21:47:39.583Z,99.90
2023-01-29T21:50:06.880Z,99.90
2023-01-29T21:52:33.713Z,99.90
2023-01-29T21:55:00.543Z,99.90
2023-01-29T21:57:28.519Z,99.90
2023-01-29T21:59:55.457Z,99.90
2023-01-29T22:02:23.098Z,99.10
2023-01-29T22:04:51.540Z,99.90
2023-01-29T22:07:19.195Z,99.90
2023-01-29T22:09:46.159Z,99.90
2023-01-29T22:12:13.139Z,99.90
2023-01-29T22:14:41.918Z,99.90
2023-01-29T22:17:09.812Z,99.90
2023-01-29T22:19:36.752Z,99.90
2023-01-29T22:22:03.647Z,99.90
2023-01-29T22:24:30.701Z,99.90
2023-01-29T22:26:57.541Z,99.90
2023-01-29T22:29:24.371Z,99.90
2023-01-29T22:31:56.948Z,99.90
2023-01-29T22:34:23.722Z,99.90
2023-01-29T22:36:50.631Z,99.90
2023-01-29T22:39:17.423Z,99.90
2023-01-29T22:41:44.235Z,99.90
2023-01-29T22:44:11.093Z,99.90
2023-01-29T22:46:38.038Z,99.90
2023-01-29T22:49:04.893Z,99.90
2023-01-29T22:51:31.706Z,99.90
2023-01-29T22:53:58.487Z,99.90
2023-01-29T22:56:26.901Z,99.90
2023-01-29T22:58:58.441Z,99.90
2023-01-29T23:01:27.245Z,1.00
2023-01-29T23:03:54.295Z,1.00
2023-01-29T23:06:21.973Z,1.00
2023-01-29T23:08:49.464Z,1.00
2023-01-29T23:11:19.916Z,1.00
2023-01-29T23:13:54.154Z,1.00
2023-01-29T23:16:28.308Z,1.00
2023-01-29T23:18:55.886Z,1.00
2023-01-29T23:21:25.066Z,1.00
2023-01-29T23:23:58.312Z,1.00
2023-01-29T23:26:43.978Z,1.00
2023-01-29T23:29:10.945Z,1.00
2023-01-29T23:31:38.086Z,1.00
2023-01-29T23:34:05.065Z,3.50
2023-01-29T23:36:32.365Z,15.10
2023-01-29T23:38:59.193Z,19.90
2023-01-29T23:41:25.958Z,1.00
2023-01-29T23:43:53.183Z,99.90
2023-01-29T23:46:19.948Z,82.00
2023-01-29T23:48:46.713Z,99.90
2023-01-29T23:51:13.576Z,99.90
2023-01-29T23:53:40.557Z,99.90
2023-01-29T23:56:07.705Z,99.90
2023-01-29T23:58:34.817Z,99.90
